Observations for Trim Market St
| Time | AQI | Temp °C | Hum % | Pres Pa | CO μg/m³ | H₂S μg/m³ | NO μg/m³ | NO₂ μg/m³ | O₃ μg/m³ | SO₂ μg/m³ | PM1 μg/m³ | PM2.5 μg/m³ | PM10 μg/m³ |
|---|---|---|---|---|---|---|---|---|---|---|---|---|---|
| Monday 24 August 2026 | |||||||||||||
| 01:17 | 2 | 10.8 | 73 | 54,071 | 0.5 | 0 | 3.22 | 15.82 | 24.77 | 0 | 2.85 | 3.87 | 6.92 |
| 01:16 | 2 | 10.8 | 73 | 54,163 | 0.5 | 0 | 3.64 | 15.35 | 25.41 | 0 | 2.14 | 3.87 | 6.31 |
| 01:15 | 2 | 10.8 | 73 | 54,256 | 0.5 | 0 | 3.81 | 16.34 | 24.25 | 0 | 2.85 | 4.35 | 7.53 |
| 01:14 | 2 | 10.9 | 73 | 54,352 | 0.5 | 0 | 3.63 | 17.68 | 23.21 | 0 | 2.14 | 2.91 | 5.1 |
| 01:13 | 2 | 10.8 | 73 | 54,441 | 0.5 | 0 | 4.24 | 13.95 | 27.66 | 0 | 2.14 | 2.91 | 5.7 |
| 01:11 | 2 | 10.9 | 73 | 54,516 | 0.49 | 0 | 3.95 | 14.94 | 26.92 | 0 | 1.43 | 3.4 | 5.7 |
| 01:10 | 2 | 10.9 | 73 | 54,572 | 0.5 | 0 | 3.95 | 13.45 | 29.2 | 0 | 2.14 | 3.4 | 5.7 |
| 01:09 | 2 | 10.9 | 73 | 54,609 | 0.5 | 0 | 4.12 | 13.1 | 29.83 | 0 | 2.85 | 3.88 | 6.92 |
| 01:08 | 2 | 10.9 | 73 | 54,648 | 0.49 | 0 | 4.08 | 13.08 | 29.84 | 0 | 2.14 | 3.89 | 6.31 |
| 01:07 | 2 | 11 | 73 | 54,679 | 0.48 | 0 | 4.06 | 12.67 | 31.47 | 0 | 1.43 | 3.4 | 5.7 |
| 01:06 | 2 | 10.9 | 73 | 54,712 | 0.5 | 0 | 4.54 | 13.58 | 29.07 | 0 | 2.14 | 3.89 | 6.92 |
| 01:05 | 2 | 11 | 73 | 54,742 | 0.49 | 0 | 4.45 | 12.99 | 30.74 | 0 | 2.14 | 3.89 | 6.31 |
| 01:04 | 2 | 11 | 73 | 54,768 | 0.5 | 0 | 4.44 | 12.99 | 30.69 | 0 | 2.85 | 3.41 | 6.92 |
| 01:03 | 2 | 11 | 73 | 54,785 | 0.5 | 0 | 4.02 | 13.28 | 30.29 | 0 | 2.14 | 3.41 | 6.31 |
| 01:01 | 2 | 11 | 73 | 54,834 | 0.49 | 0 | 3.46 | 13.28 | 30.21 | 0 | 2.14 | 3.9 | 6.31 |
| 00:56 | 2 | 11.1 | 72 | 54,908 | 0.49 | 0 | 2.46 | 13.14 | 31.25 | 0 | 2.14 | 2.94 | 5.08 |
| 00:54 | 2 | 11.1 | 72 | 54,944 | 0.48 | 0 | 2.61 | 12.97 | 31.32 | 0 | 2.85 | 4.39 | 6.92 |
| 00:53 | 2 | 11.1 | 72 | 54,959 | 0.49 | 0 | 2.56 | 13.27 | 30.94 | 0 | 2.14 | 3.92 | 6.3 |
| 00:48 | 2 | 11.2 | 72 | 55,132 | 0.48 | 0 | 3.48 | 14.11 | 30.45 | 0 | 0.71 | 3.45 | 5.68 |
| 00:41 | 2 | 11.3 | 71 | 55,535 | 0.48 | 0 | 4.29 | 18.49 | 25.86 | 0 | 1.43 | 2.99 | 5.06 |